Time;durP1;ratioP1;P1;durP2;ratioP2;P2;SDS_P1;SDS_P2;PMS_P1;PMS_P2;Temp;Humidity;BMP_temperature;BMP_pressure;BME280_temperature;BME280_humidity;BME280_pressure;Samples;Min_cycle;Max_cycle;Signal;HPM_P1;HPM_P2
2021/01/28 08:54:29;;;;;;;43.00;16.65;;;5.00;99.90;;;;;;10006251;29;19921;-93
2021/01/28 08:59:40;;;;;;;30.33;12.65;;;5.00;99.90;;;;;;9997468;29;20141;-93
2021/01/28 09:04:47;;;;;;;22.85;10.68;;;5.00;99.90;;;;;;10010702;29;20058;-93
2021/01/28 09:10:03;;;;;;;25.95;12.60;;;5.00;99.90;;;;;;10026248;29;20141;-94
2021/01/28 09:15:21;;;;;;;30.17;13.55;;;5.00;99.90;;;;;;9997171;29;20058;-93
2021/01/28 09:20:32;;;;;;;28.77;14.52;;;5.00;99.90;;;;;;9997137;29;20514;-93
2021/01/28 09:25:35;;;;;;;36.08;14.68;;;5.00;99.90;;;;;;10009909;29;20066;-94
2021/01/28 09:30:43;;;;;;;25.58;13.98;;;5.00;99.90;;;;;;10013709;29;20467;-94
2021/01/28 09:36:10;;;;;;;19.02;11.02;;;5.00;99.90;;;;;;9994206;29;20087;-93
2021/01/28 09:41:28;;;;;;;24.60;12.00;;;5.00;99.90;;;;;;10009450;29;20168;-93
2021/01/28 09:46:30;;;;;;;19.70;12.90;;;5.00;99.90;;;;;;10009464;29;20062;-94
2021/01/28 09:51:35;;;;;;;17.30;10.38;;;5.00;99.90;;;;;;9979472;29;20510;-94
2021/01/28 09:56:40;;;;;;;21.17;13.35;;;5.00;99.90;;;;;;10008561;29;20113;-95
2021/01/28 10:01:43;;;;;;;13.63;9.48;;;5.00;99.90;;;;;;9994908;29;20062;-94
2021/01/28 10:06:46;;;;;;;17.27;11.35;;;5.00;99.90;;;;;;9993702;29;20145;-94
2021/01/28 10:11:48;;;;;;;23.75;14.80;;;5.10;99.90;;;;;;9993472;29;20153;-95
2021/01/28 10:16:49;;;;;;;25.23;14.85;;;5.10;99.90;;;;;;9995130;29;20117;-96
2021/01/28 10:21:51;;;;;;;;;;;5.10;99.90;;;;;;9993488;29;20137;-95
2021/01/28 10:26:52;;;;;;;24.40;14.55;;;5.00;99.90;;;;;;9993020;29;19955;-94
2021/01/28 10:44:02;;;;;;;19.33;13.10;;;5.00;99.90;;;;;;10020796;29;20553;-92
2021/01/28 10:49:04;;;;;;;;;;;4.90;99.90;;;;;;9992389;29;20085;-92
2021/01/28 10:54:06;;;;;;;26.87;16.10;;;4.90;99.90;;;;;;9991792;29;19925;-92
2021/01/28 10:59:07;;;;;;;;;;;5.00;99.90;;;;;;9988781;29;20062;-92
2021/01/28 11:04:09;;;;;;;18.60;11.32;;;4.90;99.90;;;;;;9939683;29;19952;-92
2021/01/28 11:09:10;;;;;;;15.85;11.43;;;4.90;99.90;;;;;;9954182;29;20090;-93
2021/01/28 11:14:12;;;;;;;;;;;4.90;99.90;;;;;;9954584;29;20061;-93
2021/01/28 11:19:13;;;;;;;18.60;11.60;;;4.90;99.90;;;;;;9953192;29;20008;-92
2021/01/28 11:24:15;;;;;;;20.38;13.68;;;4.90;99.90;;;;;;9981551;29;20137;-92
2021/01/28 11:29:22;;;;;;;;;;;4.90;99.90;;;;;;9955611;29;20141;-92
2021/01/28 11:34:27;;;;;;;22.90;14.43;;;4.90;99.90;;;;;;9954638;29;19972;-92
2021/01/28 11:39:29;;;;;;;14.63;11.88;;;5.00;99.90;;;;;;9969081;29;20146;-93
2021/01/28 11:44:30;;;;;;;21.40;15.68;;;5.00;99.90;;;;;;9968241;29;20127;-92
2021/01/28 11:49:32;;;;;;;24.52;17.48;;;5.10;99.90;;;;;;9974105;29;20115;-92
2021/01/28 11:54:33;;;;;;;25.65;18.00;;;5.00;99.90;;;;;;9960253;29;20146;-93
2021/01/28 11:59:35;;;;;;;;;;;5.00;99.90;;;;;;9974573;29;20145;-94
2021/01/28 12:04:36;;;;;;;22.98;17.45;;;5.10;99.90;;;;;;9945440;29;20448;-94
2021/01/28 12:09:38;;;;;;;19.13;14.60;;;5.10;99.90;;;;;;9975212;29;20066;-94
2021/01/28 12:14:40;;;;;;;24.85;19.33;;;5.10;99.90;;;;;;9974827;29;20055;-94
2021/01/28 12:19:41;;;;;;;19.05;16.20;;;5.10;99.90;;;;;;9961208;29;20429;-93
2021/01/28 12:24:43;;;;;;;;;;;5.10;99.90;;;;;;9975068;29;20069;-94
2021/01/28 12:29:45;;;;;;;25.42;16.40;;;5.10;99.90;;;;;;9959826;29;19947;-93
2021/01/28 12:34:47;;;;;;;;;;;5.10;99.90;;;;;;9974417;29;20058;-94
2021/01/28 12:39:49;;;;;;;22.70;16.38;;;5.20;99.90;;;;;;9959660;29;19977;-94
2021/01/28 12:44:52;;;;;;;30.83;19.52;;;5.20;99.90;;;;;;9988159;29;20089;-94
2021/01/28 12:49:54;;;;;;;24.05;17.02;;;5.20;99.90;;;;;;9988212;29;20054;-94
2021/01/28 12:54:58;;;;;;;40.88;22.92;;;5.30;99.90;;;;;;9974767;29;20070;-94
2021/01/28 13:00:00;;;;;;;24.30;19.33;;;5.30;99.90;;;;;;9959848;29;20403;-95
2021/01/28 13:05:02;;;;;;;18.80;15.55;;;5.30;99.90;;;;;;9972764;29;20125;-94
2021/01/28 13:10:05;;;;;;;19.00;13.15;;;5.30;99.90;;;;;;10011233;29;20072;-95
2021/01/28 13:15:16;;;;;;;21.90;15.90;;;5.30;99.90;;;;;;10010402;29;20049;-95
2021/01/28 13:20:20;;;;;;;21.33;14.68;;;5.30;99.90;;;;;;10011184;29;20073;-95
2021/01/28 13:25:23;;;;;;;20.92;14.95;;;5.40;99.90;;;;;;10010523;29;20090;-95
2021/01/28 13:30:26;;;;;;;16.65;12.45;;;5.50;99.90;;;;;;10010151;29;20058;-93
2021/01/28 13:35:29;;;;;;;21.80;12.93;;;5.40;99.90;;;;;;10009262;29;20054;-91
2021/01/28 13:40:32;;;;;;;19.38;12.50;;;5.30;99.90;;;;;;10011431;29;20452;-94
2021/01/28 13:45:34;;;;;;;16.85;11.40;;;5.30;99.90;;;;;;9975549;29;20506;-94
2021/01/28 13:50:39;;;;;;;12.30;9.13;;;5.30;99.90;;;;;;9973868;29;20066;-95
2021/01/28 13:55:41;;;;;;;12.05;9.25;;;5.30;99.90;;;;;;9998697;29;20506;-94
2021/01/28 14:00:43;;;;;;;16.17;8.90;;;5.20;99.90;;;;;;10009809;29;20103;-94
2021/01/28 14:05:46;;;;;;;10.07;7.88;;;5.20;99.90;;;;;;9994633;29;20088;-92
2021/01/28 14:10:47;;;;;;;12.55;8.32;;;5.20;99.90;;;;;;10022851;29;20115;-92
2021/01/28 14:15:49;;;;;;;10.15;7.28;;;5.10;99.90;;;;;;9964069;29;20058;-92
2021/01/28 14:20:51;;;;;;;12.40;7.68;;;5.10;99.90;;;;;;9978559;29;20058;-92
2021/01/28 14:25:53;;;;;;;11.43;7.82;;;5.10;99.90;;;;;;10023767;29;20058;-92
2021/01/28 14:30:58;;;;;;;13.27;9.20;;;5.20;99.90;;;;;;10008089;29;20069;-94
2021/01/28 14:36:00;;;;;;;13.98;8.38;;;5.10;99.90;;;;;;9978582;29;20093;-93
2021/01/28 14:41:03;;;;;;;;;;;5.10;99.90;;;;;;10023425;29;20173;-93
2021/01/28 14:46:04;;;;;;;10.65;7.72;;;5.10;99.90;;;;;;9992410;29;19981;-92
2021/01/28 14:51:06;;;;;;;;;;;5.10;99.90;;;;;;9993361;29;20145;-93
2021/01/28 14:56:07;;;;;;;10.63;7.15;;;5.10;99.90;;;;;;10006788;29;19973;-93
2021/01/28 15:01:09;;;;;;;9.32;7.15;;;5.10;99.90;;;;;;10008114;29;20478;-93
2021/01/28 15:06:13;;;;;;;9.00;6.85;;;5.20;99.90;;;;;;10007179;29;20520;-93
2021/01/28 15:11:15;;;;;;;14.15;9.30;;;5.20;99.90;;;;;;10007466;29;20499;-93
2021/01/28 15:16:24;;;;;;;12.43;6.93;;;5.10;99.90;;;;;;10008328;29;20103;-93
2021/01/28 15:21:26;;;;;;;15.30;10.50;;;5.10;99.90;;;;;;10026658;29;20053;-93
2021/01/28 15:26:28;;;;;;;12.52;8.85;;;5.10;99.90;;;;;;10030999;29;20065;-93
2021/01/28 15:31:29;;;;;;;12.40;7.80;;;5.10;99.90;;;;;;9999108;29;20472;-92
2021/01/28 15:36:31;;;;;;;8.52;6.82;;;5.10;99.90;;;;;;9998584;29;20062;-93
2021/01/28 15:41:33;;;;;;;14.02;9.35;;;5.10;99.90;;;;;;10013850;29;20089;-93
2021/01/28 15:46:35;;;;;;;13.25;8.75;;;5.00;99.90;;;;;;9998748;29;20426;-93
2021/01/28 15:51:37;;;;;;;11.07;7.82;;;5.00;99.90;;;;;;10028802;29;20077;-93
2021/01/28 15:56:38;;;;;;;11.18;8.02;;;5.10;99.90;;;;;;10013519;29;20054;-93
2021/01/28 16:01:40;;;;;;;;;;;5.10;99.90;;;;;;10028807;29;20078;-93
2021/01/28 16:06:42;;;;;;;9.15;7.43;;;5.10;99.90;;;;;;10013436;29;20019;-93
2021/01/28 16:11:45;;;;;;;16.05;9.23;;;5.00;99.90;;;;;;10014526;29;20058;-93
2021/01/28 16:16:47;;;;;;;23.48;11.98;;;5.00;99.90;;;;;;9973525;29;20474;-92
2021/01/28 16:21:49;;;;;;;16.35;9.85;;;5.00;99.90;;;;;;9974767;29;20054;-92
2021/01/28 16:26:50;;;;;;;10.05;7.82;;;5.00;99.90;;;;;;9961066;29;20170;-95
2021/01/28 16:31:52;;;;;;;12.55;9.65;;;4.90;99.90;;;;;;9976344;29;20439;-96
2021/01/28 16:36:54;;;;;;;9.93;8.40;;;5.00;99.90;;;;;;9988589;29;20082;-96
2021/01/28 16:41:56;;;;;;;11.65;8.82;;;4.90;99.90;;;;;;9989186;29;20069;-96
